SBGO/GYN METAR and TAF weather

Enter ICAO airport designator
Station Type Date Time Source
SBGO METAR 2019/12/12 09:00 UTC NOAA

SBGO 120900Z 33003KT 9999 FEW045 22/21 Q1013


Station Type Date Time Source
SBGO Decoded METAR 2019/12/12 09:00 UTC NOAA

Goiania Aeroporto , Brazil (SBGO) 16-38S 049-13W
Dec 12, 2019 - 04:00 AM EST / 2019.12.12 0900 UTC
Wind: from the NNW (330 degrees) at 3 MPH (3 KT):0
Visibility: greater than 7 mile(s):0
Sky conditions: mostly clear
Temperature: 71 F (22 C)
Dew Point: 69 F (21 C)
Relative Humidity: 94%
Pressure (altimeter): 29.91 in. Hg (1013 hPa)
ob: SBGO 120900Z 33003KT 9999 FEW045 22/21 Q1013
cycle: 9

Station Type Date Time Source
SBGO TAF 2019/12/12 06:45 UTC NOAA

TAF TAF SBGO 120400Z 1206/1306 10003KT 9999 FEW010 TN22/1207Z TX30/1215Z
BECMG 1210/1212 13005KT
BECMG 1215/1217 33005KT SCT035 FEW040TCU PROB40 1218/1222 TS SCT012 SCT035 FEW040CB
BECMG 1222/1224 24005KT SCT015
RMK PEU

Example: see airport list